sensor_id;sensor_type;location;lat;lon;timestamp;P1;durP1;ratioP1;P2;durP2;ratioP2
10120;SDS011;5100;45.176;5.714;2023-04-03T00:01:01;1.30;;;1.20;;
10120;SDS011;5100;45.176;5.714;2023-04-03T00:03:29;1.00;;;1.00;;
10120;SDS011;5100;45.176;5.714;2023-04-03T00:05:55;1.10;;;1.10;;
10120;SDS011;5100;45.176;5.714;2023-04-03T00:08:21;1.13;;;1.13;;
10120;SDS011;5100;45.176;5.714;2023-04-03T00:10:47;1.00;;;1.00;;
10120;SDS011;5100;45.176;5.714;2023-04-03T00:13:14;1.00;;;1.00;;
10120;SDS011;5100;45.176;5.714;2023-04-03T00:15:40;1.00;;;1.00;;
10120;SDS011;5100;45.176;5.714;2023-04-03T00:18:07;1.00;;;1.00;;
10120;SDS011;5100;45.176;5.714;2023-04-03T00:20:34;1.00;;;1.00;;
10120;SDS011;5100;45.176;5.714;2023-04-03T00:23:00;1.00;;;1.00;;
10120;SDS011;5100;45.176;5.714;2023-04-03T00:25:27;0.97;;;0.90;;
10120;SDS011;5100;45.176;5.714;2023-04-03T00:27:53;0.90;;;0.90;;
10120;SDS011;5100;45.176;5.714;2023-04-03T00:30:20;0.93;;;0.93;;
10120;SDS011;5100;45.176;5.714;2023-04-03T00:32:48;0.97;;;0.97;;
10120;SDS011;5100;45.176;5.714;2023-04-03T00:35:15;1.00;;;1.00;;
10120;SDS011;5100;45.176;5.714;2023-04-03T00:37:42;1.27;;;1.17;;
10120;SDS011;5100;45.176;5.714;2023-04-03T00:40:09;1.10;;;1.10;;
10120;SDS011;5100;45.176;5.714;2023-04-03T00:42:37;1.10;;;1.10;;
10120;SDS011;5100;45.176;5.714;2023-04-03T00:47:32;1.00;;;1.00;;
10120;SDS011;5100;45.176;5.714;2023-04-03T00:49:58;1.10;;;1.10;;
10120;SDS011;5100;45.176;5.714;2023-04-03T00:52:25;1.30;;;1.20;;
10120;SDS011;5100;45.176;5.714;2023-04-03T00:54:57;1.70;;;1.20;;
10120;SDS011;5100;45.176;5.714;2023-04-03T00:57:27;1.07;;;1.07;;
10120;SDS011;5100;45.176;5.714;2023-04-03T00:59:58;1.33;;;1.00;;
10120;SDS011;5100;45.176;5.714;2023-04-03T01:02:31;1.30;;;1.20;;
10120;SDS011;5100;45.176;5.714;2023-04-03T01:04:57;1.10;;;1.00;;
10120;SDS011;5100;45.176;5.714;2023-04-03T01:07:26;1.00;;;1.00;;
10120;SDS011;5100;45.176;5.714;2023-04-03T01:09:56;1.17;;;1.17;;
10120;SDS011;5100;45.176;5.714;2023-04-03T01:12:26;0.97;;;0.97;;
10120;SDS011;5100;45.176;5.714;2023-04-03T01:15:01;1.87;;;1.00;;
10120;SDS011;5100;45.176;5.714;2023-04-03T01:17:39;0.90;;;0.90;;
10120;SDS011;5100;45.176;5.714;2023-04-03T01:25:58;1.10;;;1.10;;
10120;SDS011;5100;45.176;5.714;2023-04-03T01:28:26;1.07;;;1.07;;
10120;SDS011;5100;45.176;5.714;2023-04-03T01:33:52;1.00;;;1.00;;
10120;SDS011;5100;45.176;5.714;2023-04-03T01:36:20;1.00;;;1.00;;
10120;SDS011;5100;45.176;5.714;2023-04-03T01:38:48;1.20;;;1.10;;
10120;SDS011;5100;45.176;5.714;2023-04-03T01:41:16;1.30;;;1.20;;
10120;SDS011;5100;45.176;5.714;2023-04-03T01:43:44;1.20;;;1.10;;
10120;SDS011;5100;45.176;5.714;2023-04-03T01:46:10;1.10;;;1.10;;
10120;SDS011;5100;45.176;5.714;2023-04-03T01:48:37;1.10;;;1.10;;
10120;SDS011;5100;45.176;5.714;2023-04-03T01:51:03;1.00;;;1.00;;
10120;SDS011;5100;45.176;5.714;2023-04-03T01:53:29;1.20;;;1.20;;
10120;SDS011;5100;45.176;5.714;2023-04-03T01:55:56;1.27;;;1.10;;
10120;SDS011;5100;45.176;5.714;2023-04-03T01:58:23;1.37;;;1.30;;
10120;SDS011;5100;45.176;5.714;2023-04-03T02:00:50;1.13;;;1.10;;
10120;SDS011;5100;45.176;5.714;2023-04-03T02:03:18;1.17;;;1.17;;
10120;SDS011;5100;45.176;5.714;2023-04-03T02:05:44;1.67;;;1.40;;
10120;SDS011;5100;45.176;5.714;2023-04-03T02:08:10;1.43;;;1.33;;
10120;SDS011;5100;45.176;5.714;2023-04-03T02:10:38;1.30;;;1.20;;
10120;SDS011;5100;45.176;5.714;2023-04-03T02:13:05;1.10;;;1.10;;
10120;SDS011;5100;45.176;5.714;2023-04-03T02:15:31;1.53;;;1.30;;
10120;SDS011;5100;45.176;5.714;2023-04-03T02:17:57;1.10;;;1.10;;
10120;SDS011;5100;45.176;5.714;2023-04-03T02:20:25;1.40;;;1.30;;
10120;SDS011;5100;45.176;5.714;2023-04-03T02:22:51;1.50;;;1.40;;
10120;SDS011;5100;45.176;5.714;2023-04-03T02:25:18;1.20;;;1.17;;
10120;SDS011;5100;45.176;5.714;2023-04-03T02:27:44;1.63;;;1.47;;
10120;SDS011;5100;45.176;5.714;2023-04-03T02:30:10;1.30;;;1.30;;
10120;SDS011;5100;45.176;5.714;2023-04-03T02:32:37;1.40;;;1.30;;
10120;SDS011;5100;45.176;5.714;2023-04-03T02:35:03;1.90;;;1.23;;
10120;SDS011;5100;45.176;5.714;2023-04-03T02:37:30;1.60;;;1.50;;
10120;SDS011;5100;45.176;5.714;2023-04-03T02:39:57;1.30;;;1.30;;
10120;SDS011;5100;45.176;5.714;2023-04-03T02:42:23;1.17;;;1.10;;
10120;SDS011;5100;45.176;5.714;2023-04-03T02:44:50;1.53;;;1.33;;
10120;SDS011;5100;45.176;5.714;2023-04-03T02:47:17;1.80;;;1.30;;
10120;SDS011;5100;45.176;5.714;2023-04-03T02:49:43;1.10;;;1.10;;
10120;SDS011;5100;45.176;5.714;2023-04-03T02:52:12;1.83;;;1.30;;
10120;SDS011;5100;45.176;5.714;2023-04-03T02:54:39;1.20;;;1.20;;
10120;SDS011;5100;45.176;5.714;2023-04-03T02:57:06;4.17;;;1.40;;
10120;SDS011;5100;45.176;5.714;2023-04-03T02:59:35;1.20;;;1.20;;
10120;SDS011;5100;45.176;5.714;2023-04-03T03:02:02;1.43;;;1.33;;
10120;SDS011;5100;45.176;5.714;2023-04-03T03:04:28;1.50;;;1.40;;
10120;SDS011;5100;45.176;5.714;2023-04-03T03:06:55;1.43;;;1.33;;
10120;SDS011;5100;45.176;5.714;2023-04-03T03:09:22;1.53;;;1.43;;
10120;SDS011;5100;45.176;5.714;2023-04-03T03:11:48;1.50;;;1.40;;
10120;SDS011;5100;45.176;5.714;2023-04-03T03:14:14;1.70;;;1.60;;
10120;SDS011;5100;45.176;5.714;2023-04-03T03:16:41;1.60;;;1.50;;
10120;SDS011;5100;45.176;5.714;2023-04-03T03:19:07;1.70;;;1.60;;
10120;SDS011;5100;45.176;5.714;2023-04-03T03:21:34;1.60;;;1.50;;
10120;SDS011;5100;45.176;5.714;2023-04-03T03:24:00;1.70;;;1.60;;
10120;SDS011;5100;45.176;5.714;2023-04-03T03:26:27;1.60;;;1.50;;
10120;SDS011;5100;45.176;5.714;2023-04-03T03:28:54;1.63;;;1.53;;
10120;SDS011;5100;45.176;5.714;2023-04-03T03:31:21;2.00;;;1.80;;
10120;SDS011;5100;45.176;5.714;2023-04-03T03:33:47;1.40;;;1.40;;
10120;SDS011;5100;45.176;5.714;2023-04-03T03:36:13;1.53;;;1.50;;
10120;SDS011;5100;45.176;5.714;2023-04-03T03:38:40;1.93;;;1.70;;
10120;SDS011;5100;45.176;5.714;2023-04-03T03:41:08;1.73;;;1.63;;
10120;SDS011;5100;45.176;5.714;2023-04-03T03:43:34;1.70;;;1.60;;
10120;SDS011;5100;45.176;5.714;2023-04-03T03:46:01;1.67;;;1.57;;
10120;SDS011;5100;45.176;5.714;2023-04-03T03:48:28;2.57;;;2.00;;
10120;SDS011;5100;45.176;5.714;2023-04-03T03:50:55;1.70;;;1.60;;
10120;SDS011;5100;45.176;5.714;2023-04-03T03:53:22;1.90;;;1.80;;
10120;SDS011;5100;45.176;5.714;2023-04-03T03:55:48;1.93;;;1.77;;
10120;SDS011;5100;45.176;5.714;2023-04-03T03:58:15;2.10;;;2.00;;
10120;SDS011;5100;45.176;5.714;2023-04-03T04:00:41;2.40;;;2.30;;
10120;SDS011;5100;45.176;5.714;2023-04-03T04:03:08;2.20;;;2.00;;
10120;SDS011;5100;45.176;5.714;2023-04-03T04:05:34;2.23;;;2.13;;
10120;SDS011;5100;45.176;5.714;2023-04-03T04:08:00;2.43;;;2.30;;
10120;SDS011;5100;45.176;5.714;2023-04-03T04:10:27;2.40;;;2.30;;
10120;SDS011;5100;45.176;5.714;2023-04-03T04:12:54;2.67;;;2.47;;
10120;SDS011;5100;45.176;5.714;2023-04-03T04:15:20;2.40;;;2.20;;
10120;SDS011;5100;45.176;5.714;2023-04-03T04:17:48;2.40;;;2.30;;
10120;SDS011;5100;45.176;5.714;2023-04-03T04:20:14;2.30;;;2.20;;
10120;SDS011;5100;45.176;5.714;2023-04-03T04:22:41;3.00;;;2.80;;
10120;SDS011;5100;45.176;5.714;2023-04-03T04:25:08;2.87;;;2.67;;
10120;SDS011;5100;45.176;5.714;2023-04-03T04:27:35;2.80;;;2.60;;
10120;SDS011;5100;45.176;5.714;2023-04-03T04:30:03;2.80;;;2.70;;
10120;SDS011;5100;45.176;5.714;2023-04-03T04:32:30;2.90;;;2.60;;
10120;SDS011;5100;45.176;5.714;2023-04-03T04:34:57;2.90;;;2.70;;
10120;SDS011;5100;45.176;5.714;2023-04-03T04:37:23;3.17;;;2.87;;
10120;SDS011;5100;45.176;5.714;2023-04-03T04:39:51;2.70;;;2.60;;
10120;SDS011;5100;45.176;5.714;2023-04-03T04:42:17;2.63;;;2.50;;
10120;SDS011;5100;45.176;5.714;2023-04-03T04:44:50;2.95;;;2.65;;
10120;SDS011;5100;45.176;5.714;2023-04-03T04:47:17;3.20;;;3.00;;
10120;SDS011;5100;45.176;5.714;2023-04-03T04:49:44;3.00;;;2.80;;
10120;SDS011;5100;45.176;5.714;2023-04-03T04:52:11;3.17;;;2.97;;
10120;SDS011;5100;45.176;5.714;2023-04-03T04:54:38;3.70;;;2.80;;
10120;SDS011;5100;45.176;5.714;2023-04-03T04:57:04;2.87;;;2.70;;
10120;SDS011;5100;45.176;5.714;2023-04-03T04:59:30;3.30;;;3.00;;
10120;SDS011;5100;45.176;5.714;2023-04-03T05:01:57;3.30;;;3.00;;
10120;SDS011;5100;45.176;5.714;2023-04-03T05:04:24;3.07;;;2.87;;
10120;SDS011;5100;45.176;5.714;2023-04-03T05:06:51;3.30;;;3.10;;
10120;SDS011;5100;45.176;5.714;2023-04-03T05:09:19;2.77;;;2.67;;
10120;SDS011;5100;45.176;5.714;2023-04-03T05:11:46;3.20;;;3.00;;
10120;SDS011;5100;45.176;5.714;2023-04-03T05:14:13;3.10;;;2.90;;
10120;SDS011;5100;45.176;5.714;2023-04-03T05:16:40;3.50;;;3.20;;
10120;SDS011;5100;45.176;5.714;2023-04-03T05:19:06;3.33;;;3.13;;
10120;SDS011;5100;45.176;5.714;2023-04-03T05:21:32;3.30;;;3.10;;
10120;SDS011;5100;45.176;5.714;2023-04-03T05:24:01;3.27;;;3.07;;
10120;SDS011;5100;45.176;5.714;2023-04-03T05:26:30;3.30;;;3.10;;
10120;SDS011;5100;45.176;5.714;2023-04-03T05:28:57;3.10;;;2.90;;
10120;SDS011;5100;45.176;5.714;2023-04-03T05:31:24;3.10;;;2.90;;
10120;SDS011;5100;45.176;5.714;2023-04-03T05:33:51;4.83;;;3.20;;
10120;SDS011;5100;45.176;5.714;2023-04-03T05:36:17;3.20;;;2.90;;
10120;SDS011;5100;45.176;5.714;2023-04-03T05:38:45;3.43;;;3.23;;
10120;SDS011;5100;45.176;5.714;2023-04-03T05:41:12;3.53;;;3.33;;
10120;SDS011;5100;45.176;5.714;2023-04-03T05:43:39;3.50;;;3.23;;
10120;SDS011;5100;45.176;5.714;2023-04-03T05:46:13;3.30;;;3.10;;
10120;SDS011;5100;45.176;5.714;2023-04-03T05:48:44;3.67;;;3.47;;
10120;SDS011;5100;45.176;5.714;2023-04-03T05:51:16;3.50;;;3.20;;
10120;SDS011;5100;45.176;5.714;2023-04-03T05:53:45;3.70;;;3.47;;
10120;SDS011;5100;45.176;5.714;2023-04-03T05:56:13;3.17;;;2.87;;
10120;SDS011;5100;45.176;5.714;2023-04-03T05:58:39;3.60;;;3.40;;
10120;SDS011;5100;45.176;5.714;2023-04-03T06:01:05;4.00;;;3.70;;
10120;SDS011;5100;45.176;5.714;2023-04-03T06:03:32;3.57;;;3.33;;
10120;SDS011;5100;45.176;5.714;2023-04-03T06:05:58;4.20;;;3.90;;
10120;SDS011;5100;45.176;5.714;2023-04-03T06:08:24;3.50;;;3.30;;
10120;SDS011;5100;45.176;5.714;2023-04-03T06:10:51;3.60;;;3.40;;
10120;SDS011;5100;45.176;5.714;2023-04-03T06:13:17;3.90;;;3.70;;
10120;SDS011;5100;45.176;5.714;2023-04-03T06:15:44;3.50;;;3.30;;
10120;SDS011;5100;45.176;5.714;2023-04-03T06:18:10;3.77;;;3.47;;
10120;SDS011;5100;45.176;5.714;2023-04-03T06:20:36;3.87;;;3.57;;
10120;SDS011;5100;45.176;5.714;2023-04-03T06:23:02;3.83;;;3.53;;
10120;SDS011;5100;45.176;5.714;2023-04-03T06:25:29;4.20;;;3.90;;
10120;SDS011;5100;45.176;5.714;2023-04-03T06:27:55;4.13;;;3.83;;
10120;SDS011;5100;45.176;5.714;2023-04-03T06:30:21;4.00;;;3.70;;
10120;SDS011;5100;45.176;5.714;2023-04-03T06:32:48;4.20;;;3.90;;
10120;SDS011;5100;45.176;5.714;2023-04-03T06:35:14;7.07;;;3.80;;
10120;SDS011;5100;45.176;5.714;2023-04-03T06:37:41;3.70;;;3.47;;
10120;SDS011;5100;45.176;5.714;2023-04-03T06:40:09;3.70;;;3.40;;
10120;SDS011;5100;45.176;5.714;2023-04-03T06:42:44;3.30;;;3.10;;
10120;SDS011;5100;45.176;5.714;2023-04-03T06:45:11;3.47;;;3.20;;
10120;SDS011;5100;45.176;5.714;2023-04-03T06:47:37;3.37;;;3.17;;
10120;SDS011;5100;45.176;5.714;2023-04-03T06:50:03;2.60;;;2.40;;
10120;SDS011;5100;45.176;5.714;2023-04-03T06:52:30;2.70;;;2.50;;
10120;SDS011;5100;45.176;5.714;2023-04-03T06:54:56;2.17;;;2.03;;
10120;SDS011;5100;45.176;5.714;2023-04-03T06:57:25;3.10;;;2.00;;
10120;SDS011;5100;45.176;5.714;2023-04-03T06:59:52;2.50;;;2.13;;
10120;SDS011;5100;45.176;5.714;2023-04-03T07:02:18;2.53;;;2.33;;
10120;SDS011;5100;45.176;5.714;2023-04-03T07:04:44;2.00;;;1.70;;
10120;SDS011;5100;45.176;5.714;2023-04-03T07:07:10;1.97;;;1.70;;
10120;SDS011;5100;45.176;5.714;2023-04-03T07:09:36;1.53;;;1.43;;
10120;SDS011;5100;45.176;5.714;2023-04-03T07:12:02;1.50;;;1.33;;
10120;SDS011;5100;45.176;5.714;2023-04-03T07:14:29;1.20;;;1.20;;
10120;SDS011;5100;45.176;5.714;2023-04-03T07:16:55;1.50;;;1.40;;
10120;SDS011;5100;45.176;5.714;2023-04-03T07:19:21;1.40;;;1.40;;
10120;SDS011;5100;45.176;5.714;2023-04-03T07:21:50;1.30;;;1.30;;
10120;SDS011;5100;45.176;5.714;2023-04-03T07:24:16;3.10;;;1.30;;
10120;SDS011;5100;45.176;5.714;2023-04-03T07:26:42;1.57;;;1.47;;
10120;SDS011;5100;45.176;5.714;2023-04-03T07:29:09;2.60;;;1.37;;
10120;SDS011;5100;45.176;5.714;2023-04-03T07:31:35;1.53;;;1.43;;
10120;SDS011;5100;45.176;5.714;2023-04-03T07:34:02;1.40;;;1.30;;
10120;SDS011;5100;45.176;5.714;2023-04-03T07:36:28;1.13;;;1.10;;
10120;SDS011;5100;45.176;5.714;2023-04-03T07:38:55;3.87;;;1.97;;
10120;SDS011;5100;45.176;5.714;2023-04-03T07:41:22;3.30;;;1.70;;
10120;SDS011;5100;45.176;5.714;2023-04-03T07:43:49;1.50;;;1.40;;
10120;SDS011;5100;45.176;5.714;2023-04-03T07:46:15;3.90;;;2.17;;
10120;SDS011;5100;45.176;5.714;2023-04-03T07:48:43;1.50;;;1.40;;
10120;SDS011;5100;45.176;5.714;2023-04-03T07:51:09;1.67;;;1.57;;
10120;SDS011;5100;45.176;5.714;2023-04-03T07:53:36;3.77;;;1.67;;
10120;SDS011;5100;45.176;5.714;2023-04-03T07:56:02;1.40;;;1.40;;
10120;SDS011;5100;45.176;5.714;2023-04-03T07:58:28;1.80;;;1.70;;
10120;SDS011;5100;45.176;5.714;2023-04-03T08:00:55;1.80;;;1.70;;
10120;SDS011;5100;45.176;5.714;2023-04-03T08:03:21;1.97;;;1.70;;
10120;SDS011;5100;45.176;5.714;2023-04-03T08:05:48;1.70;;;1.60;;
10120;SDS011;5100;45.176;5.714;2023-04-03T08:08:16;2.40;;;2.20;;
10120;SDS011;5100;45.176;5.714;2023-04-03T08:10:47;2.10;;;2.00;;
10120;SDS011;5100;45.176;5.714;2023-04-03T08:13:17;1.93;;;1.83;;
10120;SDS011;5100;45.176;5.714;2023-04-03T08:15:43;2.13;;;2.03;;
10120;SDS011;5100;45.176;5.714;2023-04-03T08:18:10;2.50;;;2.30;;
10120;SDS011;5100;45.176;5.714;2023-04-03T08:20:37;2.50;;;2.30;;
10120;SDS011;5100;45.176;5.714;2023-04-03T08:23:04;2.33;;;2.20;;
10120;SDS011;5100;45.176;5.714;2023-04-03T08:25:31;1.90;;;1.80;;
10120;SDS011;5100;45.176;5.714;2023-04-03T08:27:57;4.07;;;2.97;;
10120;SDS011;5100;45.176;5.714;2023-04-03T08:30:23;2.03;;;1.93;;
10120;SDS011;5100;45.176;5.714;2023-04-03T08:32:50;2.37;;;2.27;;
10120;SDS011;5100;45.176;5.714;2023-04-03T08:35:17;4.93;;;2.50;;
10120;SDS011;5100;45.176;5.714;2023-04-03T08:37:43;5.50;;;2.40;;
10120;SDS011;5100;45.176;5.714;2023-04-03T08:40:14;2.57;;;2.37;;
10120;SDS011;5100;45.176;5.714;2023-04-03T08:42:59;3.83;;;2.23;;
10120;SDS011;5100;45.176;5.714;2023-04-03T08:45:32;2.30;;;2.20;;
10120;SDS011;5100;45.176;5.714;2023-04-03T08:50:48;3.23;;;2.70;;
10120;SDS011;5100;45.176;5.714;2023-04-03T08:53:25;3.23;;;2.90;;
10120;SDS011;5100;45.176;5.714;2023-04-03T08:55:58;2.60;;;2.50;;
10120;SDS011;5100;45.176;5.714;2023-04-03T08:58:30;3.13;;;2.93;;
10120;SDS011;5100;45.176;5.714;2023-04-03T09:01:07;3.20;;;3.00;;
10120;SDS011;5100;45.176;5.714;2023-04-03T09:03:47;4.10;;;2.93;;
10120;SDS011;5100;45.176;5.714;2023-04-03T09:06:15;3.20;;;3.00;;
10120;SDS011;5100;45.176;5.714;2023-04-03T09:12:24;3.00;;;2.80;;
10120;SDS011;5100;45.176;5.714;2023-04-03T09:17:46;3.23;;;2.90;;
10120;SDS011;5100;45.176;5.714;2023-04-03T09:22:56;2.60;;;2.40;;
10120;SDS011;5100;45.176;5.714;2023-04-03T09:25:24;8.77;;;2.93;;
10120;SDS011;5100;45.176;5.714;2023-04-03T09:27:53;2.77;;;2.57;;
10120;SDS011;5100;45.176;5.714;2023-04-03T09:30:21;3.97;;;2.83;;
10120;SDS011;5100;45.176;5.714;2023-04-03T09:32:50;4.37;;;3.00;;
10120;SDS011;5100;45.176;5.714;2023-04-03T09:37:48;3.87;;;2.57;;
10120;SDS011;5100;45.176;5.714;2023-04-03T09:42:53;3.53;;;2.97;;
10120;SDS011;5100;45.176;5.714;2023-04-03T09:45:25;3.97;;;2.90;;
10120;SDS011;5100;45.176;5.714;2023-04-03T09:48:07;2.87;;;2.63;;
10120;SDS011;5100;45.176;5.714;2023-04-03T09:50:34;4.23;;;2.73;;
10120;SDS011;5100;45.176;5.714;2023-04-03T09:53:06;2.27;;;2.17;;
10120;SDS011;5100;45.176;5.714;2023-04-03T09:55:33;2.33;;;2.13;;
10120;SDS011;5100;45.176;5.714;2023-04-03T09:58:22;3.97;;;3.30;;
10120;SDS011;5100;45.176;5.714;2023-04-03T10:00:55;2.63;;;2.37;;
10120;SDS011;5100;45.176;5.714;2023-04-03T10:03:24;2.63;;;2.10;;
10120;SDS011;5100;45.176;5.714;2023-04-03T10:05:58;2.93;;;2.70;;
10120;SDS011;5100;45.176;5.714;2023-04-03T10:08:29;2.57;;;2.37;;
10120;SDS011;5100;45.176;5.714;2023-04-03T10:11:08;2.63;;;2.43;;
10120;SDS011;5100;45.176;5.714;2023-04-03T10:13:51;2.67;;;2.10;;
10120;SDS011;5100;45.176;5.714;2023-04-03T10:16:20;2.03;;;1.93;;
10120;SDS011;5100;45.176;5.714;2023-04-03T10:21:51;3.90;;;2.17;;
10120;SDS011;5100;45.176;5.714;2023-04-03T10:32:50;1.77;;;1.50;;
10120;SDS011;5100;45.176;5.714;2023-04-03T10:39:02;1.60;;;1.50;;
10120;SDS011;5100;45.176;5.714;2023-04-03T10:41:29;1.53;;;1.40;;
10120;SDS011;5100;45.176;5.714;2023-04-03T10:52:50;1.40;;;1.30;;
10120;SDS011;5100;45.176;5.714;2023-04-03T10:55:35;1.50;;;1.40;;
10120;SDS011;5100;45.176;5.714;2023-04-03T10:58:23;2.03;;;1.60;;
10120;SDS011;5100;45.176;5.714;2023-04-03T11:00:59;1.60;;;1.50;;
10120;SDS011;5100;45.176;5.714;2023-04-03T11:03:32;1.67;;;1.57;;
10120;SDS011;5100;45.176;5.714;2023-04-03T11:06:04;1.37;;;1.37;;
10120;SDS011;5100;45.176;5.714;2023-04-03T11:08:36;1.23;;;1.23;;
10120;SDS011;5100;45.176;5.714;2023-04-03T11:11:08;3.00;;;1.57;;
10120;SDS011;5100;45.176;5.714;2023-04-03T11:13:47;1.70;;;1.40;;
10120;SDS011;5100;45.176;5.714;2023-04-03T11:16:27;1.30;;;1.20;;
10120;SDS011;5100;45.176;5.714;2023-04-03T11:18:59;5.23;;;2.00;;
10120;SDS011;5100;45.176;5.714;2023-04-03T11:21:29;1.90;;;1.80;;
10120;SDS011;5100;45.176;5.714;2023-04-03T11:24:02;1.50;;;1.40;;
10120;SDS011;5100;45.176;5.714;2023-04-03T11:26:35;7.63;;;1.90;;
10120;SDS011;5100;45.176;5.714;2023-04-03T11:29:06;2.90;;;1.30;;
10120;SDS011;5100;45.176;5.714;2023-04-03T11:34:28;1.33;;;1.23;;
10120;SDS011;5100;45.176;5.714;2023-04-03T11:39:52;1.90;;;1.30;;
10120;SDS011;5100;45.176;5.714;2023-04-03T11:42:32;1.20;;;1.20;;
10120;SDS011;5100;45.176;5.714;2023-04-03T11:50:53;1.50;;;1.40;;
10120;SDS011;5100;45.176;5.714;2023-04-03T11:53:30;1.40;;;1.30;;
10120;SDS011;5100;45.176;5.714;2023-04-03T11:55:59;1.40;;;1.20;;
10120;SDS011;5100;45.176;5.714;2023-04-03T11:58:31;4.40;;;1.70;;
10120;SDS011;5100;45.176;5.714;2023-04-03T12:01:00;1.80;;;1.23;;
10120;SDS011;5100;45.176;5.714;2023-04-03T12:03:31;1.10;;;1.10;;
10120;SDS011;5100;45.176;5.714;2023-04-03T12:16:24;1.47;;;1.37;;
10120;SDS011;5100;45.176;5.714;2023-04-03T12:21:20;1.10;;;1.10;;
10120;SDS011;5100;45.176;5.714;2023-04-03T12:29:27;1.90;;;1.33;;
10120;SDS011;5100;45.176;5.714;2023-04-03T12:40:28;1.50;;;1.40;;
10120;SDS011;5100;45.176;5.714;2023-04-03T12:48:14;1.60;;;1.50;;
10120;SDS011;5100;45.176;5.714;2023-04-03T12:50:43;1.50;;;1.40;;
10120;SDS011;5100;45.176;5.714;2023-04-03T12:53:17;1.50;;;1.40;;
10120;SDS011;5100;45.176;5.714;2023-04-03T12:55:54;1.60;;;1.50;;
10120;SDS011;5100;45.176;5.714;2023-04-03T12:58:25;1.80;;;1.70;;
10120;SDS011;5100;45.176;5.714;2023-04-03T13:01:03;1.70;;;1.60;;
10120;SDS011;5100;45.176;5.714;2023-04-03T13:03:36;1.87;;;1.77;;
10120;SDS011;5100;45.176;5.714;2023-04-03T13:06:06;2.08;;;1.98;;
10120;SDS011;5100;45.176;5.714;2023-04-03T13:08:32;1.80;;;1.70;;
10120;SDS011;5100;45.176;5.714;2023-04-03T13:11:00;2.20;;;2.03;;
10120;SDS011;5100;45.176;5.714;2023-04-03T13:13:36;2.20;;;2.10;;
10120;SDS011;5100;45.176;5.714;2023-04-03T13:16:11;2.50;;;2.30;;
10120;SDS011;5100;45.176;5.714;2023-04-03T13:18:39;2.43;;;2.23;;
10120;SDS011;5100;45.176;5.714;2023-04-03T13:21:06;2.40;;;2.20;;
10120;SDS011;5100;45.176;5.714;2023-04-03T13:23:38;2.67;;;2.47;;
10120;SDS011;5100;45.176;5.714;2023-04-03T13:26:07;2.45;;;2.30;;
10120;SDS011;5100;45.176;5.714;2023-04-03T13:28:34;2.50;;;2.30;;
10120;SDS011;5100;45.176;5.714;2023-04-03T13:31:03;2.67;;;2.50;;
10120;SDS011;5100;45.176;5.714;2023-04-03T13:33:33;2.60;;;2.40;;
10120;SDS011;5100;45.176;5.714;2023-04-03T13:36:19;2.50;;;2.40;;
10120;SDS011;5100;45.176;5.714;2023-04-03T13:38:57;2.27;;;2.00;;
10120;SDS011;5100;45.176;5.714;2023-04-03T13:41:30;2.40;;;2.20;;
10120;SDS011;5100;45.176;5.714;2023-04-03T13:44:14;2.37;;;2.17;;
10120;SDS011;5100;45.176;5.714;2023-04-03T13:46:48;3.17;;;2.97;;
10120;SDS011;5100;45.176;5.714;2023-04-03T13:49:29;2.63;;;2.43;;
10120;SDS011;5100;45.176;5.714;2023-04-03T13:52:17;2.33;;;2.23;;
10120;SDS011;5100;45.176;5.714;2023-04-03T13:54:56;2.20;;;2.10;;
10120;SDS011;5100;45.176;5.714;2023-04-03T13:57:25;2.67;;;2.47;;
10120;SDS011;5100;45.176;5.714;2023-04-03T13:59:51;2.40;;;2.20;;
10120;SDS011;5100;45.176;5.714;2023-04-03T14:04:53;2.60;;;2.40;;
10120;SDS011;5100;45.176;5.714;2023-04-03T14:07:24;2.50;;;2.37;;
10120;SDS011;5100;45.176;5.714;2023-04-03T14:09:51;2.67;;;2.47;;
10120;SDS011;5100;45.176;5.714;2023-04-03T14:12:29;2.50;;;2.30;;
10120;SDS011;5100;45.176;5.714;2023-04-03T14:15:00;2.30;;;2.20;;
10120;SDS011;5100;45.176;5.714;2023-04-03T14:17:28;2.90;;;2.65;;
10120;SDS011;5100;45.176;5.714;2023-04-03T14:19:54;2.72;;;2.53;;
10120;SDS011;5100;45.176;5.714;2023-04-03T14:22:23;2.65;;;2.47;;
10120;SDS011;5100;45.176;5.714;2023-04-03T14:24:51;2.87;;;2.67;;
10120;SDS011;5100;45.176;5.714;2023-04-03T14:27:20;2.90;;;2.70;;
10120;SDS011;5100;45.176;5.714;2023-04-03T14:29:48;2.63;;;2.43;;
10120;SDS011;5100;45.176;5.714;2023-04-03T14:32:16;5.77;;;2.80;;
10120;SDS011;5100;45.176;5.714;2023-04-03T14:34:43;3.08;;;2.87;;
10120;SDS011;5100;45.176;5.714;2023-04-03T14:37:12;2.70;;;2.50;;
10120;SDS011;5100;45.176;5.714;2023-04-03T14:39:41;3.47;;;2.90;;
10120;SDS011;5100;45.176;5.714;2023-04-03T14:42:12;2.85;;;2.65;;
10120;SDS011;5100;45.176;5.714;2023-04-03T14:44:41;3.65;;;3.35;;
10120;SDS011;5100;45.176;5.714;2023-04-03T14:47:14;3.53;;;2.90;;
10120;SDS011;5100;45.176;5.714;2023-04-03T14:49:49;2.67;;;2.47;;
10120;SDS011;5100;45.176;5.714;2023-04-03T14:52:20;2.75;;;2.55;;
10120;SDS011;5100;45.176;5.714;2023-04-03T14:54:49;2.90;;;2.70;;
10120;SDS011;5100;45.176;5.714;2023-04-03T14:57:16;3.28;;;3.00;;
10120;SDS011;5100;45.176;5.714;2023-04-03T14:59:43;3.17;;;2.87;;
10120;SDS011;5100;45.176;5.714;2023-04-03T15:04:49;3.08;;;2.60;;
10120;SDS011;5100;45.176;5.714;2023-04-03T15:07:16;3.40;;;3.10;;
10120;SDS011;5100;45.176;5.714;2023-04-03T15:09:42;2.85;;;2.65;;
10120;SDS011;5100;45.176;5.714;2023-04-03T15:12:08;2.93;;;2.73;;
10120;SDS011;5100;45.176;5.714;2023-04-03T15:14:35;3.30;;;3.00;;
10120;SDS011;5100;45.176;5.714;2023-04-03T15:17:02;3.37;;;2.90;;
10120;SDS011;5100;45.176;5.714;2023-04-03T15:19:38;3.17;;;2.97;;
10120;SDS011;5100;45.176;5.714;2023-04-03T15:22:04;3.07;;;2.87;;
10120;SDS011;5100;45.176;5.714;2023-04-03T15:24:31;2.60;;;2.47;;
10120;SDS011;5100;45.176;5.714;2023-04-03T15:26:57;3.37;;;2.67;;
10120;SDS011;5100;45.176;5.714;2023-04-03T15:29:25;5.20;;;2.70;;
10120;SDS011;5100;45.176;5.714;2023-04-03T15:31:52;3.07;;;2.77;;
10120;SDS011;5100;45.176;5.714;2023-04-03T15:34:18;3.53;;;3.22;;
10120;SDS011;5100;45.176;5.714;2023-04-03T15:36:47;3.75;;;3.08;;
10120;SDS011;5100;45.176;5.714;2023-04-03T15:39:13;2.93;;;2.47;;
10120;SDS011;5100;45.176;5.714;2023-04-03T15:41:39;3.50;;;3.07;;
10120;SDS011;5100;45.176;5.714;2023-04-03T15:44:05;3.30;;;2.90;;
10120;SDS011;5100;45.176;5.714;2023-04-03T15:46:32;2.70;;;2.50;;
10120;SDS011;5100;45.176;5.714;2023-04-03T15:48:58;2.80;;;2.60;;
10120;SDS011;5100;45.176;5.714;2023-04-03T15:51:24;2.60;;;2.40;;
10120;SDS011;5100;45.176;5.714;2023-04-03T15:53:50;3.00;;;2.80;;
10120;SDS011;5100;45.176;5.714;2023-04-03T15:56:16;5.00;;;3.00;;
10120;SDS011;5100;45.176;5.714;2023-04-03T15:58:43;3.20;;;2.87;;
10120;SDS011;5100;45.176;5.714;2023-04-03T16:01:09;2.87;;;2.67;;
10120;SDS011;5100;45.176;5.714;2023-04-03T16:03:37;3.00;;;2.43;;
10120;SDS011;5100;45.176;5.714;2023-04-03T16:06:16;3.43;;;2.80;;
10120;SDS011;5100;45.176;5.714;2023-04-03T16:08:45;3.40;;;3.10;;
10120;SDS011;5100;45.176;5.714;2023-04-03T16:11:13;2.80;;;2.60;;
10120;SDS011;5100;45.176;5.714;2023-04-03T16:13:39;3.03;;;2.75;;
10120;SDS011;5100;45.176;5.714;2023-04-03T16:16:06;3.00;;;2.60;;
10120;SDS011;5100;45.176;5.714;2023-04-03T16:18:33;2.93;;;2.73;;
10120;SDS011;5100;45.176;5.714;2023-04-03T16:21:00;3.37;;;2.83;;
10120;SDS011;5100;45.176;5.714;2023-04-03T16:23:27;3.05;;;2.78;;
10120;SDS011;5100;45.176;5.714;2023-04-03T16:25:53;3.20;;;2.90;;
10120;SDS011;5100;45.176;5.714;2023-04-03T16:28:19;2.87;;;2.57;;
10120;SDS011;5100;45.176;5.714;2023-04-03T16:30:46;2.40;;;2.30;;
10120;SDS011;5100;45.176;5.714;2023-04-03T16:33:14;2.80;;;2.40;;
10120;SDS011;5100;45.176;5.714;2023-04-03T16:35:40;2.70;;;2.47;;
10120;SDS011;5100;45.176;5.714;2023-04-03T16:38:10;2.90;;;2.43;;
10120;SDS011;5100;45.176;5.714;2023-04-03T16:40:36;2.72;;;2.50;;
10120;SDS011;5100;45.176;5.714;2023-04-03T16:43:02;2.95;;;2.45;;
10120;SDS011;5100;45.176;5.714;2023-04-03T16:45:28;2.80;;;2.30;;
10120;SDS011;5100;45.176;5.714;2023-04-03T16:47:54;2.97;;;2.77;;
10120;SDS011;5100;45.176;5.714;2023-04-03T16:50:20;2.63;;;2.40;;